sensor_id;sensor_type;location;lat;lon;timestamp;P1;durP1;ratioP1;P2;durP2;ratioP2
6475;SDS011;3271;51.910;5.840;2023-03-12T00:00:17;3.70;;;2.85;;
6475;SDS011;3271;51.910;5.840;2023-03-12T00:02:44;4.32;;;2.58;;
6475;SDS011;3271;51.910;5.840;2023-03-12T00:05:10;3.25;;;2.40;;
6475;SDS011;3271;51.910;5.840;2023-03-12T00:07:36;3.10;;;2.25;;
6475;SDS011;3271;51.910;5.840;2023-03-12T00:10:03;2.63;;;2.25;;
6475;SDS011;3271;51.910;5.840;2023-03-12T00:12:29;2.88;;;2.45;;
6475;SDS011;3271;51.910;5.840;2023-03-12T00:14:55;3.38;;;2.78;;
6475;SDS011;3271;51.910;5.840;2023-03-12T00:17:20;4.32;;;2.40;;
6475;SDS011;3271;51.910;5.840;2023-03-12T00:19:50;4.22;;;2.45;;
6475;SDS011;3271;51.910;5.840;2023-03-12T00:22:16;6.55;;;2.50;;
6475;SDS011;3271;51.910;5.840;2023-03-12T00:24:42;3.53;;;2.00;;
6475;SDS011;3271;51.910;5.840;2023-03-12T00:27:08;3.42;;;2.35;;
6475;SDS011;3271;51.910;5.840;2023-03-12T00:29:34;2.10;;;1.85;;
6475;SDS011;3271;51.910;5.840;2023-03-12T00:32:00;2.83;;;2.00;;
6475;SDS011;3271;51.910;5.840;2023-03-12T00:34:26;2.78;;;2.05;;
6475;SDS011;3271;51.910;5.840;2023-03-12T00:36:52;4.18;;;2.42;;
6475;SDS011;3271;51.910;5.840;2023-03-12T00:39:18;5.72;;;2.20;;
6475;SDS011;3271;51.910;5.840;2023-03-12T00:41:44;2.55;;;2.15;;
6475;SDS011;3271;51.910;5.840;2023-03-12T00:44:10;3.57;;;2.60;;
6475;SDS011;3271;51.910;5.840;2023-03-12T00:46:36;4.47;;;1.88;;
6475;SDS011;3271;51.910;5.840;2023-03-12T00:49:01;3.78;;;2.13;;
6475;SDS011;3271;51.910;5.840;2023-03-12T00:51:27;4.00;;;2.55;;
6475;SDS011;3271;51.910;5.840;2023-03-12T00:53:53;3.60;;;1.90;;
6475;SDS011;3271;51.910;5.840;2023-03-12T00:56:19;3.03;;;1.85;;
6475;SDS011;3271;51.910;5.840;2023-03-12T00:58:45;2.50;;;1.60;;
6475;SDS011;3271;51.910;5.840;2023-03-12T01:01:11;3.83;;;2.47;;
6475;SDS011;3271;51.910;5.840;2023-03-12T01:03:37;5.83;;;2.00;;
6475;SDS011;3271;51.910;5.840;2023-03-12T01:06:03;3.85;;;1.80;;
6475;SDS011;3271;51.910;5.840;2023-03-12T01:08:30;3.28;;;2.05;;
6475;SDS011;3271;51.910;5.840;2023-03-12T01:10:56;3.80;;;1.77;;
6475;SDS011;3271;51.910;5.840;2023-03-12T01:13:22;4.35;;;2.47;;
6475;SDS011;3271;51.910;5.840;2023-03-12T01:15:47;4.00;;;1.90;;
6475;SDS011;3271;51.910;5.840;2023-03-12T01:18:13;3.90;;;1.77;;
6475;SDS011;3271;51.910;5.840;2023-03-12T01:20:39;3.30;;;2.30;;
6475;SDS011;3271;51.910;5.840;2023-03-12T01:23:06;2.97;;;1.90;;
6475;SDS011;3271;51.910;5.840;2023-03-12T01:25:32;4.07;;;2.30;;
6475;SDS011;3271;51.910;5.840;2023-03-12T01:27:58;2.27;;;1.90;;
6475;SDS011;3271;51.910;5.840;2023-03-12T01:30:24;2.60;;;2.40;;
6475;SDS011;3271;51.910;5.840;2023-03-12T01:32:51;2.10;;;1.90;;
6475;SDS011;3271;51.910;5.840;2023-03-12T01:35:17;4.10;;;2.37;;
6475;SDS011;3271;51.910;5.840;2023-03-12T01:37:43;3.10;;;2.10;;
6475;SDS011;3271;51.910;5.840;2023-03-12T01:40:13;4.83;;;1.80;;
6475;SDS011;3271;51.910;5.840;2023-03-12T01:42:40;2.20;;;1.93;;
6475;SDS011;3271;51.910;5.840;2023-03-12T01:45:49;3.57;;;2.13;;
6475;SDS011;3271;51.910;5.840;2023-03-12T01:47:52;2.57;;;2.13;;
6475;SDS011;3271;51.910;5.840;2023-03-12T01:50:18;3.60;;;1.70;;
6475;SDS011;3271;51.910;5.840;2023-03-12T01:52:44;3.03;;;1.97;;
6475;SDS011;3271;51.910;5.840;2023-03-12T01:55:13;2.13;;;1.97;;
6475;SDS011;3271;51.910;5.840;2023-03-12T01:57:41;3.93;;;2.10;;
6475;SDS011;3271;51.910;5.840;2023-03-12T02:00:09;4.70;;;2.43;;
6475;SDS011;3271;51.910;5.840;2023-03-12T02:02:35;2.85;;;2.40;;
6475;SDS011;3271;51.910;5.840;2023-03-12T02:07:31;3.80;;;2.80;;
6475;SDS011;3271;51.910;5.840;2023-03-12T02:09:58;2.70;;;2.20;;
6475;SDS011;3271;51.910;5.840;2023-03-12T02:12:24;3.83;;;2.47;;
6475;SDS011;3271;51.910;5.840;2023-03-12T02:14:50;5.53;;;2.40;;
6475;SDS011;3271;51.910;5.840;2023-03-12T02:17:16;2.17;;;1.93;;
6475;SDS011;3271;51.910;5.840;2023-03-12T02:22:14;3.50;;;2.70;;
6475;SDS011;3271;51.910;5.840;2023-03-12T02:27:09;5.70;;;2.23;;
6475;SDS011;3271;51.910;5.840;2023-03-12T02:29:36;2.57;;;2.33;;
6475;SDS011;3271;51.910;5.840;2023-03-12T02:32:03;4.50;;;2.50;;
6475;SDS011;3271;51.910;5.840;2023-03-12T02:34:30;3.30;;;2.75;;
6475;SDS011;3271;51.910;5.840;2023-03-12T02:36:57;5.97;;;3.17;;
6475;SDS011;3271;51.910;5.840;2023-03-12T02:39:23;3.97;;;2.37;;
6475;SDS011;3271;51.910;5.840;2023-03-12T02:41:50;3.57;;;2.60;;
6475;SDS011;3271;51.910;5.840;2023-03-12T02:46:44;3.07;;;2.50;;
6475;SDS011;3271;51.910;5.840;2023-03-12T02:49:11;4.63;;;2.70;;
6475;SDS011;3271;51.910;5.840;2023-03-12T02:51:38;3.67;;;2.57;;
6475;SDS011;3271;51.910;5.840;2023-03-12T02:54:04;4.37;;;2.90;;
6475;SDS011;3271;51.910;5.840;2023-03-12T02:56:30;2.87;;;2.53;;
6475;SDS011;3271;51.910;5.840;2023-03-12T02:58:56;2.70;;;2.50;;
6475;SDS011;3271;51.910;5.840;2023-03-12T03:01:22;3.57;;;2.80;;
6475;SDS011;3271;51.910;5.840;2023-03-12T03:03:48;4.63;;;2.93;;
6475;SDS011;3271;51.910;5.840;2023-03-12T03:06:14;3.63;;;3.17;;
6475;SDS011;3271;51.910;5.840;2023-03-12T03:08:40;4.00;;;2.50;;
6475;SDS011;3271;51.910;5.840;2023-03-12T03:11:06;3.53;;;2.33;;
6475;SDS011;3271;51.910;5.840;2023-03-12T03:13:32;4.13;;;2.50;;
6475;SDS011;3271;51.910;5.840;2023-03-12T03:15:59;4.93;;;2.67;;
6475;SDS011;3271;51.910;5.840;2023-03-12T03:18:26;4.17;;;2.60;;
6475;SDS011;3271;51.910;5.840;2023-03-12T03:20:55;2.53;;;2.33;;
6475;SDS011;3271;51.910;5.840;2023-03-12T03:23:22;5.40;;;2.70;;
6475;SDS011;3271;51.910;5.840;2023-03-12T03:25:48;4.25;;;2.30;;
6475;SDS011;3271;51.910;5.840;2023-03-12T03:28:14;3.38;;;2.10;;
6475;SDS011;3271;51.910;5.840;2023-03-12T03:30:40;2.90;;;2.30;;
6475;SDS011;3271;51.910;5.840;2023-03-12T03:33:05;4.63;;;2.40;;
6475;SDS011;3271;51.910;5.840;2023-03-12T03:35:32;3.97;;;2.00;;
6475;SDS011;3271;51.910;5.840;2023-03-12T03:37:58;5.20;;;2.57;;
6475;SDS011;3271;51.910;5.840;2023-03-12T03:40:24;5.10;;;2.60;;
6475;SDS011;3271;51.910;5.840;2023-03-12T03:42:50;4.03;;;2.67;;
6475;SDS011;3271;51.910;5.840;2023-03-12T03:45:16;3.37;;;2.30;;
6475;SDS011;3271;51.910;5.840;2023-03-12T03:47:43;3.63;;;2.50;;
6475;SDS011;3271;51.910;5.840;2023-03-12T03:50:09;4.77;;;2.43;;
6475;SDS011;3271;51.910;5.840;2023-03-12T03:52:36;4.93;;;2.63;;
6475;SDS011;3271;51.910;5.840;2023-03-12T03:55:02;3.53;;;2.67;;
6475;SDS011;3271;51.910;5.840;2023-03-12T03:57:28;7.83;;;2.90;;
6475;SDS011;3271;51.910;5.840;2023-03-12T03:59:54;4.95;;;2.55;;
6475;SDS011;3271;51.910;5.840;2023-03-12T04:02:21;3.87;;;2.23;;
6475;SDS011;3271;51.910;5.840;2023-03-12T04:04:47;4.77;;;2.37;;
6475;SDS011;3271;51.910;5.840;2023-03-12T04:07:13;3.70;;;2.73;;
6475;SDS011;3271;51.910;5.840;2023-03-12T04:09:39;3.63;;;2.57;;
6475;SDS011;3271;51.910;5.840;2023-03-12T04:12:05;4.30;;;3.00;;
6475;SDS011;3271;51.910;5.840;2023-03-12T04:14:31;5.10;;;2.93;;
6475;SDS011;3271;51.910;5.840;2023-03-12T04:16:57;3.53;;;2.33;;
6475;SDS011;3271;51.910;5.840;2023-03-12T04:19:23;3.83;;;2.80;;
6475;SDS011;3271;51.910;5.840;2023-03-12T04:21:48;4.35;;;2.50;;
6475;SDS011;3271;51.910;5.840;2023-03-12T04:24:15;4.47;;;2.40;;
6475;SDS011;3271;51.910;5.840;2023-03-12T04:26:42;3.00;;;2.30;;
6475;SDS011;3271;51.910;5.840;2023-03-12T04:29:08;3.53;;;2.40;;
6475;SDS011;3271;51.910;5.840;2023-03-12T04:31:34;3.83;;;2.83;;
6475;SDS011;3271;51.910;5.840;2023-03-12T04:34:00;3.80;;;2.23;;
6475;SDS011;3271;51.910;5.840;2023-03-12T04:36:26;6.35;;;2.45;;
6475;SDS011;3271;51.910;5.840;2023-03-12T04:38:52;4.10;;;2.33;;
6475;SDS011;3271;51.910;5.840;2023-03-12T04:41:18;4.22;;;2.13;;
6475;SDS011;3271;51.910;5.840;2023-03-12T04:43:44;2.95;;;2.30;;
6475;SDS011;3271;51.910;5.840;2023-03-12T04:46:10;3.87;;;2.50;;
6475;SDS011;3271;51.910;5.840;2023-03-12T04:48:36;5.50;;;2.77;;
6475;SDS011;3271;51.910;5.840;2023-03-12T04:51:02;5.00;;;2.40;;
6475;SDS011;3271;51.910;5.840;2023-03-12T04:53:28;4.05;;;3.00;;
6475;SDS011;3271;51.910;5.840;2023-03-12T04:55:54;4.82;;;2.85;;
6475;SDS011;3271;51.910;5.840;2023-03-12T04:58:20;4.20;;;2.37;;
6475;SDS011;3271;51.910;5.840;2023-03-12T05:00:47;5.77;;;3.13;;
6475;SDS011;3271;51.910;5.840;2023-03-12T05:03:13;4.77;;;2.73;;
6475;SDS011;3271;51.910;5.840;2023-03-12T05:05:39;3.65;;;2.33;;
6475;SDS011;3271;51.910;5.840;2023-03-12T05:08:05;5.43;;;2.97;;
6475;SDS011;3271;51.910;5.840;2023-03-12T05:10:31;3.53;;;2.60;;
6475;SDS011;3271;51.910;5.840;2023-03-12T05:12:57;4.13;;;2.80;;
6475;SDS011;3271;51.910;5.840;2023-03-12T05:15:23;4.82;;;2.55;;
6475;SDS011;3271;51.910;5.840;2023-03-12T05:17:49;4.97;;;2.95;;
6475;SDS011;3271;51.910;5.840;2023-03-12T05:20:15;5.28;;;3.22;;
6475;SDS011;3271;51.910;5.840;2023-03-12T05:22:44;5.03;;;2.47;;
6475;SDS011;3271;51.910;5.840;2023-03-12T05:25:10;3.03;;;2.17;;
6475;SDS011;3271;51.910;5.840;2023-03-12T05:27:36;5.68;;;2.60;;
6475;SDS011;3271;51.910;5.840;2023-03-12T05:30:03;3.63;;;2.50;;
6475;SDS011;3271;51.910;5.840;2023-03-12T05:32:30;4.63;;;2.50;;
6475;SDS011;3271;51.910;5.840;2023-03-12T05:34:56;2.33;;;2.10;;
6475;SDS011;3271;51.910;5.840;2023-03-12T05:37:22;4.97;;;2.47;;
6475;SDS011;3271;51.910;5.840;2023-03-12T05:39:48;4.70;;;2.90;;
6475;SDS011;3271;51.910;5.840;2023-03-12T05:42:14;3.77;;;2.40;;
6475;SDS011;3271;51.910;5.840;2023-03-12T05:44:41;3.60;;;2.50;;
6475;SDS011;3271;51.910;5.840;2023-03-12T05:47:07;5.20;;;2.78;;
6475;SDS011;3271;51.910;5.840;2023-03-12T05:49:33;3.80;;;2.72;;
6475;SDS011;3271;51.910;5.840;2023-03-12T05:51:59;3.13;;;2.33;;
6475;SDS011;3271;51.910;5.840;2023-03-12T05:54:25;4.43;;;2.87;;
6475;SDS011;3271;51.910;5.840;2023-03-12T05:56:51;4.37;;;2.37;;
6475;SDS011;3271;51.910;5.840;2023-03-12T05:59:17;3.72;;;2.55;;
6475;SDS011;3271;51.910;5.840;2023-03-12T06:01:43;3.93;;;2.73;;
6475;SDS011;3271;51.910;5.840;2023-03-12T06:04:09;3.13;;;2.67;;
6475;SDS011;3271;51.910;5.840;2023-03-12T06:06:35;2.80;;;2.60;;
6475;SDS011;3271;51.910;5.840;2023-03-12T06:09:02;3.65;;;2.35;;
6475;SDS011;3271;51.910;5.840;2023-03-12T06:11:28;3.70;;;2.63;;
6475;SDS011;3271;51.910;5.840;2023-03-12T06:13:55;2.93;;;2.53;;
6475;SDS011;3271;51.910;5.840;2023-03-12T06:16:22;4.55;;;2.58;;
6475;SDS011;3271;51.910;5.840;2023-03-12T06:18:48;4.25;;;2.67;;
6475;SDS011;3271;51.910;5.840;2023-03-12T06:21:18;2.97;;;2.67;;
6475;SDS011;3271;51.910;5.840;2023-03-12T06:23:44;3.67;;;2.70;;
6475;SDS011;3271;51.910;5.840;2023-03-12T06:26:10;4.18;;;2.28;;
6475;SDS011;3271;51.910;5.840;2023-03-12T06:28:37;4.57;;;2.87;;
6475;SDS011;3271;51.910;5.840;2023-03-12T06:31:03;5.55;;;2.95;;
6475;SDS011;3271;51.910;5.840;2023-03-12T06:33:29;5.43;;;2.80;;
6475;SDS011;3271;51.910;5.840;2023-03-12T06:35:58;2.40;;;2.20;;
6475;SDS011;3271;51.910;5.840;2023-03-12T06:38:25;4.35;;;2.40;;
6475;SDS011;3271;51.910;5.840;2023-03-12T06:40:55;4.27;;;2.50;;
6475;SDS011;3271;51.910;5.840;2023-03-12T06:43:21;4.25;;;2.40;;
6475;SDS011;3271;51.910;5.840;2023-03-12T06:45:47;4.68;;;3.08;;
6475;SDS011;3271;51.910;5.840;2023-03-12T06:48:13;4.63;;;2.53;;
6475;SDS011;3271;51.910;5.840;2023-03-12T06:50:39;3.88;;;2.05;;
6475;SDS011;3271;51.910;5.840;2023-03-12T06:53:05;5.57;;;2.80;;
6475;SDS011;3271;51.910;5.840;2023-03-12T06:55:31;5.57;;;3.17;;
6475;SDS011;3271;51.910;5.840;2023-03-12T06:57:57;4.80;;;2.60;;
6475;SDS011;3271;51.910;5.840;2023-03-12T07:00:23;4.25;;;2.63;;
6475;SDS011;3271;51.910;5.840;2023-03-12T07:02:49;5.20;;;2.78;;
6475;SDS011;3271;51.910;5.840;2023-03-12T07:05:15;5.07;;;2.75;;
6475;SDS011;3271;51.910;5.840;2023-03-12T07:07:40;4.60;;;2.38;;
6475;SDS011;3271;51.910;5.840;2023-03-12T07:10:07;4.85;;;2.95;;
6475;SDS011;3271;51.910;5.840;2023-03-12T07:12:33;4.00;;;3.10;;
6475;SDS011;3271;51.910;5.840;2023-03-12T07:14:59;8.02;;;3.30;;
6475;SDS011;3271;51.910;5.840;2023-03-12T07:17:25;5.97;;;2.90;;
6475;SDS011;3271;51.910;5.840;2023-03-12T07:19:51;2.83;;;2.35;;
6475;SDS011;3271;51.910;5.840;2023-03-12T07:22:17;4.90;;;2.42;;
6475;SDS011;3271;51.910;5.840;2023-03-12T07:24:43;5.47;;;2.78;;
6475;SDS011;3271;51.910;5.840;2023-03-12T07:27:09;6.73;;;3.20;;
6475;SDS011;3271;51.910;5.840;2023-03-12T07:29:35;5.15;;;2.75;;
6475;SDS011;3271;51.910;5.840;2023-03-12T07:32:00;5.03;;;3.00;;
6475;SDS011;3271;51.910;5.840;2023-03-12T07:34:26;3.83;;;2.78;;
6475;SDS011;3271;51.910;5.840;2023-03-12T07:36:52;5.68;;;2.88;;
6475;SDS011;3271;51.910;5.840;2023-03-12T07:39:18;5.07;;;3.25;;
6475;SDS011;3271;51.910;5.840;2023-03-12T07:41:44;4.93;;;3.08;;
6475;SDS011;3271;51.910;5.840;2023-03-12T07:44:10;7.45;;;3.03;;
6475;SDS011;3271;51.910;5.840;2023-03-12T07:46:36;6.72;;;3.30;;
6475;SDS011;3271;51.910;5.840;2023-03-12T07:49:02;5.85;;;2.90;;
6475;SDS011;3271;51.910;5.840;2023-03-12T07:51:28;5.68;;;2.63;;
6475;SDS011;3271;51.910;5.840;2023-03-12T07:53:55;6.72;;;3.20;;
6475;SDS011;3271;51.910;5.840;2023-03-12T07:56:21;6.15;;;2.90;;
6475;SDS011;3271;51.910;5.840;2023-03-12T07:58:47;7.75;;;3.25;;
6475;SDS011;3271;51.910;5.840;2023-03-12T08:01:13;3.40;;;2.97;;
6475;SDS011;3271;51.910;5.840;2023-03-12T08:03:39;6.50;;;3.40;;
6475;SDS011;3271;51.910;5.840;2023-03-12T08:06:05;3.70;;;2.90;;
6475;SDS011;3271;51.910;5.840;2023-03-12T08:08:31;4.43;;;2.95;;
6475;SDS011;3271;51.910;5.840;2023-03-12T08:10:58;2.88;;;2.47;;
6475;SDS011;3271;51.910;5.840;2023-03-12T08:13:24;4.22;;;3.33;;
6475;SDS011;3271;51.910;5.840;2023-03-12T08:15:51;4.97;;;3.42;;
6475;SDS011;3271;51.910;5.840;2023-03-12T08:18:17;4.43;;;3.22;;
6475;SDS011;3271;51.910;5.840;2023-03-12T08:20:43;3.05;;;2.70;;
6475;SDS011;3271;51.910;5.840;2023-03-12T08:23:09;4.65;;;3.13;;
6475;SDS011;3271;51.910;5.840;2023-03-12T08:25:36;4.70;;;3.22;;
6475;SDS011;3271;51.910;5.840;2023-03-12T08:28:02;3.40;;;2.80;;
6475;SDS011;3271;51.910;5.840;2023-03-12T08:30:29;2.97;;;2.67;;
6475;SDS011;3271;51.910;5.840;2023-03-12T08:32:55;4.60;;;2.72;;
6475;SDS011;3271;51.910;5.840;2023-03-12T08:35:21;4.13;;;3.17;;
6475;SDS011;3271;51.910;5.840;2023-03-12T08:37:47;4.82;;;3.10;;
6475;SDS011;3271;51.910;5.840;2023-03-12T08:40:13;3.38;;;3.10;;
6475;SDS011;3271;51.910;5.840;2023-03-12T08:42:39;3.65;;;3.10;;
6475;SDS011;3271;51.910;5.840;2023-03-12T08:45:06;3.85;;;2.70;;
6475;SDS011;3271;51.910;5.840;2023-03-12T08:47:32;3.47;;;2.85;;
6475;SDS011;3271;51.910;5.840;2023-03-12T08:49:58;3.08;;;2.70;;
6475;SDS011;3271;51.910;5.840;2023-03-12T08:52:23;5.70;;;3.30;;
6475;SDS011;3271;51.910;5.840;2023-03-12T08:54:49;3.20;;;2.90;;
6475;SDS011;3271;51.910;5.840;2023-03-12T08:57:15;4.95;;;3.28;;
6475;SDS011;3271;51.910;5.840;2023-03-12T08:59:41;5.70;;;3.45;;
6475;SDS011;3271;51.910;5.840;2023-03-12T09:02:09;3.50;;;3.00;;
6475;SDS011;3271;51.910;5.840;2023-03-12T09:04:35;4.00;;;3.60;;
6475;SDS011;3271;51.910;5.840;2023-03-12T09:07:01;3.72;;;3.20;;
6475;SDS011;3271;51.910;5.840;2023-03-12T09:09:27;3.83;;;3.50;;
6475;SDS011;3271;51.910;5.840;2023-03-12T09:11:53;3.30;;;3.00;;
6475;SDS011;3271;51.910;5.840;2023-03-12T09:14:19;4.70;;;3.67;;
6475;SDS011;3271;51.910;5.840;2023-03-12T09:16:45;4.15;;;3.75;;
6475;SDS011;3271;51.910;5.840;2023-03-12T09:19:11;4.30;;;3.70;;
6475;SDS011;3271;51.910;5.840;2023-03-12T09:21:37;6.03;;;4.07;;
6475;SDS011;3271;51.910;5.840;2023-03-12T09:24:04;7.05;;;4.30;;
6475;SDS011;3271;51.910;5.840;2023-03-12T09:26:30;3.50;;;3.05;;
6475;SDS011;3271;51.910;5.840;2023-03-12T09:28:56;4.30;;;3.47;;
6475;SDS011;3271;51.910;5.840;2023-03-12T09:31:23;4.20;;;3.10;;
6475;SDS011;3271;51.910;5.840;2023-03-12T09:33:49;4.13;;;3.83;;
6475;SDS011;3271;51.910;5.840;2023-03-12T09:36:15;4.53;;;4.13;;
6475;SDS011;3271;51.910;5.840;2023-03-12T09:38:41;3.80;;;3.33;;
6475;SDS011;3271;51.910;5.840;2023-03-12T09:41:15;4.10;;;3.70;;
6475;SDS011;3271;51.910;5.840;2023-03-12T09:43:42;5.05;;;4.15;;
6475;SDS011;3271;51.910;5.840;2023-03-12T09:46:17;4.60;;;4.07;;
6475;SDS011;3271;51.910;5.840;2023-03-12T09:48:44;4.20;;;3.90;;
6475;SDS011;3271;51.910;5.840;2023-03-12T09:51:21;5.22;;;3.95;;
6475;SDS011;3271;51.910;5.840;2023-03-12T09:53:52;5.75;;;4.65;;
6475;SDS011;3271;51.910;5.840;2023-03-12T09:56:19;5.22;;;4.70;;
6475;SDS011;3271;51.910;5.840;2023-03-12T09:58:46;5.20;;;4.75;;
6475;SDS011;3271;51.910;5.840;2023-03-12T10:06:29;74.60;;;56.25;;
6475;SDS011;3271;51.910;5.840;2023-03-12T10:14:37;7.40;;;5.63;;
6475;SDS011;3271;51.910;5.840;2023-03-12T10:22:15;6.57;;;5.50;;
6475;SDS011;3271;51.910;5.840;2023-03-12T10:27:13;6.68;;;5.30;;
6475;SDS011;3271;51.910;5.840;2023-03-12T10:29:40;7.10;;;6.40;;
6475;SDS011;3271;51.910;5.840;2023-03-12T10:32:12;7.22;;;6.10;;
6475;SDS011;3271;51.910;5.840;2023-03-12T10:34:54;7.40;;;5.80;;
6475;SDS011;3271;51.910;5.840;2023-03-12T10:39:46;7.35;;;6.15;;
6475;SDS011;3271;51.910;5.840;2023-03-12T10:42:14;7.35;;;6.57;;
6475;SDS011;3271;51.910;5.840;2023-03-12T10:44:40;8.57;;;7.55;;
6475;SDS011;3271;51.910;5.840;2023-03-12T10:47:40;7.07;;;6.47;;
6475;SDS011;3271;51.910;5.840;2023-03-12T10:50:10;7.35;;;6.55;;
6475;SDS011;3271;51.910;5.840;2023-03-12T10:52:36;7.05;;;6.35;;
6475;SDS011;3271;51.910;5.840;2023-03-12T10:55:09;8.68;;;7.78;;
6475;SDS011;3271;51.910;5.840;2023-03-12T10:57:39;8.27;;;7.47;;
6475;SDS011;3271;51.910;5.840;2023-03-12T11:00:06;10.05;;;7.78;;
6475;SDS011;3271;51.910;5.840;2023-03-12T11:02:39;10.30;;;7.95;;
6475;SDS011;3271;51.910;5.840;2023-03-12T11:05:23;9.00;;;7.72;;
6475;SDS011;3271;51.910;5.840;2023-03-12T11:07:49;8.00;;;7.15;;
6475;SDS011;3271;51.910;5.840;2023-03-12T11:10:19;7.65;;;6.85;;
6475;SDS011;3271;51.910;5.840;2023-03-12T11:12:54;10.20;;;7.05;;
6475;SDS011;3271;51.910;5.840;2023-03-12T11:15:22;7.22;;;6.53;;
6475;SDS011;3271;51.910;5.840;2023-03-12T11:17:48;8.35;;;6.80;;
6475;SDS011;3271;51.910;5.840;2023-03-12T11:22:43;12.98;;;7.35;;
6475;SDS011;3271;51.910;5.840;2023-03-12T11:25:18;10.52;;;6.20;;
6475;SDS011;3271;51.910;5.840;2023-03-12T11:27:45;7.68;;;6.05;;
6475;SDS011;3271;51.910;5.840;2023-03-12T11:30:14;9.18;;;6.43;;
6475;SDS011;3271;51.910;5.840;2023-03-12T11:32:45;6.93;;;6.10;;
6475;SDS011;3271;51.910;5.840;2023-03-12T11:35:13;6.50;;;5.50;;
6475;SDS011;3271;51.910;5.840;2023-03-12T11:37:41;8.02;;;5.43;;
6475;SDS011;3271;51.910;5.840;2023-03-12T11:40:20;9.07;;;5.53;;
6475;SDS011;3271;51.910;5.840;2023-03-12T11:45:45;9.75;;;4.18;;
6475;SDS011;3271;51.910;5.840;2023-03-12T11:51:24;8.45;;;3.85;;
6475;SDS011;3271;51.910;5.840;2023-03-12T11:56:28;10.05;;;3.60;;
6475;SDS011;3271;51.910;5.840;2023-03-12T12:01:36;12.07;;;3.47;;
6475;SDS011;3271;51.910;5.840;2023-03-12T12:09:11;12.35;;;4.28;;
6475;SDS011;3271;51.910;5.840;2023-03-12T12:14:22;10.45;;;4.10;;
6475;SDS011;3271;51.910;5.840;2023-03-12T12:16:57;8.68;;;3.83;;
6475;SDS011;3271;51.910;5.840;2023-03-12T12:21:53;11.23;;;4.40;;
6475;SDS011;3271;51.910;5.840;2023-03-12T12:24:40;11.85;;;4.43;;
6475;SDS011;3271;51.910;5.840;2023-03-12T12:27:14;15.32;;;5.03;;
6475;SDS011;3271;51.910;5.840;2023-03-12T12:29:50;14.70;;;4.82;;
6475;SDS011;3271;51.910;5.840;2023-03-12T12:33:08;13.70;;;5.07;;
6475;SDS011;3271;51.910;5.840;2023-03-12T12:35:17;13.10;;;4.70;;
6475;SDS011;3271;51.910;5.840;2023-03-12T12:40:36;11.15;;;4.65;;
6475;SDS011;3271;51.910;5.840;2023-03-12T12:43:23;15.02;;;4.43;;
6475;SDS011;3271;51.910;5.840;2023-03-12T12:45:52;14.05;;;3.97;;
6475;SDS011;3271;51.910;5.840;2023-03-12T12:48:21;16.20;;;4.72;;
6475;SDS011;3271;51.910;5.840;2023-03-12T12:50:50;13.68;;;3.97;;
6475;SDS011;3271;51.910;5.840;2023-03-12T12:55:51;15.27;;;5.75;;
6475;SDS011;3271;51.910;5.840;2023-03-12T12:58:22;13.90;;;4.25;;
6475;SDS011;3271;51.910;5.840;2023-03-12T13:00:54;15.77;;;4.90;;
6475;SDS011;3271;51.910;5.840;2023-03-12T13:03:22;12.82;;;4.53;;
6475;SDS011;3271;51.910;5.840;2023-03-12T13:13:44;15.20;;;3.92;;
6475;SDS011;3271;51.910;5.840;2023-03-12T13:18:55;13.60;;;4.40;;
6475;SDS011;3271;51.910;5.840;2023-03-12T13:21:34;13.30;;;4.28;;
6475;SDS011;3271;51.910;5.840;2023-03-12T13:24:11;17.10;;;3.80;;
6475;SDS011;3271;51.910;5.840;2023-03-12T13:29:20;17.00;;;5.57;;
6475;SDS011;3271;51.910;5.840;2023-03-12T13:31:46;15.88;;;4.88;;
6475;SDS011;3271;51.910;5.840;2023-03-12T13:36:45;16.92;;;5.43;;
6475;SDS011;3271;51.910;5.840;2023-03-12T13:41:41;14.30;;;4.82;;
6475;SDS011;3271;51.910;5.840;2023-03-12T13:46:57;16.42;;;4.47;;
6475;SDS011;3271;51.910;5.840;2023-03-12T13:49:23;20.52;;;6.18;;
6475;SDS011;3271;51.910;5.840;2023-03-12T13:52:38;16.00;;;5.38;;
6475;SDS011;3271;51.910;5.840;2023-03-12T13:54:40;15.05;;;5.35;;
6475;SDS011;3271;51.910;5.840;2023-03-12T13:57:19;16.98;;;4.68;;
6475;SDS011;3271;51.910;5.840;2023-03-12T13:59:48;19.33;;;5.40;;
6475;SDS011;3271;51.910;5.840;2023-03-12T14:02:19;18.63;;;4.95;;
6475;SDS011;3271;51.910;5.840;2023-03-12T14:04:47;19.67;;;4.82;;
6475;SDS011;3271;51.910;5.840;2023-03-12T14:09:42;16.45;;;5.75;;
6475;SDS011;3271;51.910;5.840;2023-03-12T14:17:30;18.58;;;5.32;;
6475;SDS011;3271;51.910;5.840;2023-03-12T14:20:01;13.68;;;5.57;;
6475;SDS011;3271;51.910;5.840;2023-03-12T14:22:30;15.10;;;4.35;;
6475;SDS011;3271;51.910;5.840;2023-03-12T14:25:02;11.55;;;3.72;;
6475;SDS011;3271;51.910;5.840;2023-03-12T14:27:30;13.80;;;3.80;;
6475;SDS011;3271;51.910;5.840;2023-03-12T14:30:43;16.80;;;4.82;;
6475;SDS011;3271;51.910;5.840;2023-03-12T14:32:43;19.35;;;4.80;;
6475;SDS011;3271;51.910;5.840;2023-03-12T14:35:35;13.60;;;4.25;;
6475;SDS011;3271;51.910;5.840;2023-03-12T14:38:03;13.77;;;4.25;;
6475;SDS011;3271;51.910;5.840;2023-03-12T14:42:58;12.85;;;3.47;;
6475;SDS011;3271;51.910;5.840;2023-03-12T14:45:24;15.48;;;4.22;;
6475;SDS011;3271;51.910;5.840;2023-03-12T14:47:52;13.85;;;4.63;;
6475;SDS011;3271;51.910;5.840;2023-03-12T14:52:51;15.32;;;3.45;;
6475;SDS011;3271;51.910;5.840;2023-03-12T14:55:21;17.05;;;4.50;;
6475;SDS011;3271;51.910;5.840;2023-03-12T14:57:47;13.02;;;3.60;;
6475;SDS011;3271;51.910;5.840;2023-03-12T15:00:24;18.23;;;4.10;;
6475;SDS011;3271;51.910;5.840;2023-03-12T15:02:54;14.48;;;4.70;;
6475;SDS011;3271;51.910;5.840;2023-03-12T15:05:21;13.80;;;3.67;;
6475;SDS011;3271;51.910;5.840;2023-03-12T15:07:49;15.25;;;4.63;;
6475;SDS011;3271;51.910;5.840;2023-03-12T15:10:17;16.90;;;3.97;;
6475;SDS011;3271;51.910;5.840;2023-03-12T15:12:44;14.13;;;3.53;;
6475;SDS011;3271;51.910;5.840;2023-03-12T15:15:56;13.75;;;4.75;;
6475;SDS011;3271;51.910;5.840;2023-03-12T15:17:59;14.77;;;4.63;;
6475;SDS011;3271;51.910;5.840;2023-03-12T15:20:26;14.55;;;4.57;;
6475;SDS011;3271;51.910;5.840;2023-03-12T15:22:52;17.88;;;5.03;;
6475;SDS011;3271;51.910;5.840;2023-03-12T15:27:47;14.10;;;3.97;;
6475;SDS011;3271;51.910;5.840;2023-03-12T15:30:23;12.73;;;3.58;;
6475;SDS011;3271;51.910;5.840;2023-03-12T15:35:41;16.85;;;4.35;;
6475;SDS011;3271;51.910;5.840;2023-03-12T15:38:14;14.30;;;3.67;;
6475;SDS011;3271;51.910;5.840;2023-03-12T15:40:43;11.55;;;3.92;;
6475;SDS011;3271;51.910;5.840;2023-03-12T15:43:14;12.77;;;3.28;;
6475;SDS011;3271;51.910;5.840;2023-03-12T15:45:41;15.98;;;4.65;;
6475;SDS011;3271;51.910;5.840;2023-03-12T15:48:22;14.18;;;5.20;;
6475;SDS011;3271;51.910;5.840;2023-03-12T15:50:50;14.10;;;4.53;;
6475;SDS011;3271;51.910;5.840;2023-03-12T15:55:42;13.68;;;4.03;;
6475;SDS011;3271;51.910;5.840;2023-03-12T15:58:23;20.20;;;4.45;;
6475;SDS011;3271;51.910;5.840;2023-03-12T16:00:50;15.77;;;4.55;;
6475;SDS011;3271;51.910;5.840;2023-03-12T16:03:20;13.98;;;4.03;;
6475;SDS011;3271;51.910;5.840;2023-03-12T16:05:46;17.92;;;4.50;;
6475;SDS011;3271;51.910;5.840;2023-03-12T16:08:17;21.73;;;5.85;;
6475;SDS011;3271;51.910;5.840;2023-03-12T16:10:45;16.02;;;4.70;;
6475;SDS011;3271;51.910;5.840;2023-03-12T16:13:18;15.23;;;4.65;;
6475;SDS011;3271;51.910;5.840;2023-03-12T16:15:45;18.85;;;4.28;;
6475;SDS011;3271;51.910;5.840;2023-03-12T16:18:11;15.27;;;4.82;;
6475;SDS011;3271;51.910;5.840;2023-03-12T16:20:38;18.25;;;4.47;;
6475;SDS011;3271;51.910;5.840;2023-03-12T16:23:04;15.45;;;4.47;;
6475;SDS011;3271;51.910;5.840;2023-03-12T16:25:30;19.25;;;4.57;;
6475;SDS011;3271;51.910;5.840;2023-03-12T16:27:57;15.93;;;4.65;;
6475;SDS011;3271;51.910;5.840;2023-03-12T16:30:27;15.48;;;4.45;;
6475;SDS011;3271;51.910;5.840;2023-03-12T16:32:53;17.48;;;4.28;;
6475;SDS011;3271;51.910;5.840;2023-03-12T16:35:19;15.10;;;3.85;;
6475;SDS011;3271;51.910;5.840;2023-03-12T16:37:45;16.42;;;4.53;;
6475;SDS011;3271;51.910;5.840;2023-03-12T16:40:12;16.95;;;4.80;;
6475;SDS011;3271;51.910;5.840;2023-03-12T16:42:39;16.30;;;4.78;;
6475;SDS011;3271;51.910;5.840;2023-03-12T16:45:07;20.20;;;4.95;;
6475;SDS011;3271;51.910;5.840;2023-03-12T16:47:34;14.43;;;4.43;;
6475;SDS011;3271;51.910;5.840;2023-03-12T16:50:00;19.48;;;5.18;;
6475;SDS011;3271;51.910;5.840;2023-03-12T16:52:25;20.83;;;4.82;;
6475;SDS011;3271;51.910;5.840;2023-03-12T16:54:52;11.75;;;4.32;;
6475;SDS011;3271;51.910;5.840;2023-03-12T16:59:47;14.82;;;4.38;;